In Rescue
 
Open Full Screen Window  High Contrast Mode
Wind Gusting 00 knots
12
March 19, 2019 6:10 PM CDT
Weather Information
Wind Direction
  300 °
Wind Speed
  12 kt (14 mph)
Wind Gust
  00 kt (0 mph)
Altimeter
30.18 in
Visibility
10 SM
Temperature
01° C
34° F
Dewpoint
01° C
34° F
Humidity
100%
1hr Rain Fall
00.00 in.
24hr Rain Fall
00.00 in.
Sky Condition
Broken @ 400 ft
LIFR

METAR KMDS 192310Z AUTO 30012KT 10SM BKN004 01/01 A3018 RMK AO2

FAA Disclaimer: The data displayed is for advisory purposes only and is not to be used for flight planning or operations.